Welcome to Des Moines Iowa Weather. I am an independent private personal weather station on the Northwest Side of Des Moines, Iowa. Just East of Windsor Heights and just West of Glendale . This site is also mobile friendly.

There are no active watches, warnings or advisories


Visit our other weather sites:

Historical Data

Weather Station Setup



Weather Underground History page Text

Daily Summary for October 13, 2017 Units:  English    Metric   Both
« Previous Day
Next Day »
Daily Weekly Monthly Yearly Custom
  High: Low: Average:
Temperature: 59.7 °F 51.2 °F 55.4 °F
Dew Point: 56.0 °F 50.0 °F 53.3 °F
Humidity: 96 % 85 % 92 %
Wind Speed: 4.0 mph 0.0 mph 0.4 mph
Wind Gust: 13.0 mph - -
Wind:- - ENE
Pressure: 30.06 in 29.99 in -
Precipitation: 0.00 in    
Historical Graphs
 
 
Tabular Data for October 13, 2017
Time Temperature Dew Point Pressure Wind Wind Speed Wind Gust Humidity Rainfall Rate (Hourly)
00:14 51.2 °F 50.0 °F 30.02 in Calm     94 % 0.00 in
00:29 51.8 °F 50.0 °F 30.01 in Calm     94 % 0.00 in
00:44 52.2 °F 51.0 °F 30.01 in Calm   2.0 mph 94 % 0.00 in
00:59 52.4 °F 51.0 °F 30.01 in Calm   2.0 mph 95 % 0.00 in
01:14 52.6 °F 51.0 °F 30.01 in Calm     95 % 0.00 in
01:29 52.7 °F 51.0 °F 30.01 in Calm   1.0 mph 94 % 0.00 in
01:44 52.7 °F 51.0 °F 30.01 in Calm     94 % 0.00 in
01:59 52.6 °F 51.0 °F 30.01 in Calm     94 % 0.00 in
02:14 52.6 °F 51.0 °F 30.01 in Calm     94 % 0.00 in
02:29 52.6 °F 51.0 °F 30.01 in Calm     94 % 0.00 in
02:44 52.4 °F 51.0 °F 30.01 in Calm     94 % 0.00 in
02:59 52.3 °F 51.0 °F 30.01 in Calm     94 % 0.00 in
03:14 52.3 °F 51.0 °F 30.01 in Calm     94 % 0.00 in
03:29 52.5 °F 51.0 °F 30.01 in Calm     94 % 0.00 in
03:44 52.5 °F 51.0 °F 30.01 in Calm   1.0 mph 94 % 0.00 in
03:59 52.4 °F 51.0 °F 30.01 in Calm   1.0 mph 94 % 0.00 in
04:14 52.4 °F 51.0 °F 30.01 in SSE 1.0 mph 1.0 mph 94 % 0.00 in
04:29 52.3 °F 51.0 °F 30.01 in SSE 1.0 mph 2.0 mph 94 % 0.00 in
04:46 52.2 °F 51.0 °F 30.02 in Calm     94 % 0.00 in
05:00 52.0 °F 50.0 °F 30.02 in Calm     94 % 0.00 in
05:15 51.7 °F 50.0 °F 30.02 in Calm     94 % 0.00 in
05:29 51.7 °F 50.0 °F 30.02 in Calm   2.0 mph 95 % 0.00 in
05:44 51.9 °F 51.0 °F 30.03 in Calm   2.0 mph 95 % 0.00 in
06:00 52.0 °F 51.0 °F 30.02 in Calm   1.0 mph 95 % 0.00 in
06:15 51.9 °F 51.0 °F 30.02 in Calm     95 % 0.00 in
06:30 51.8 °F 51.0 °F 30.03 in Calm   1.0 mph 95 % 0.00 in
06:45 51.9 °F 51.0 °F 30.03 in Calm   1.0 mph 95 % 0.00 in
07:00 52.1 °F 51.0 °F 30.02 in Calm   3.0 mph 95 % 0.00 in
07:15 52.2 °F 51.0 °F 30.03 in Calm   2.0 mph 96 % 0.00 in
07:30 52.4 °F 51.0 °F 30.03 in Calm   2.0 mph 96 % 0.00 in
07:45 52.5 °F 51.0 °F 30.04 in Calm   2.0 mph 96 % 0.00 in
08:00 52.7 °F 52.0 °F 30.03 in Calm   2.0 mph 96 % 0.00 in
08:15 53.0 °F 52.0 °F 30.03 in Calm   3.0 mph 96 % 0.00 in
08:30 53.2 °F 52.0 °F 30.02 in Calm   3.0 mph 96 % 0.00 in
08:45 53.4 °F 52.0 °F 30.03 in Calm   4.0 mph 96 % 0.00 in
09:00 53.6 °F 53.0 °F 30.03 in Calm   3.0 mph 96 % 0.00 in
09:15 53.9 °F 53.0 °F 30.04 in Calm   1.0 mph 96 % 0.00 in
09:30 54.1 °F 53.0 °F 30.04 in Calm   3.0 mph 95 % 0.00 in
09:45 54.6 °F 53.0 °F 30.03 in Calm   3.0 mph 95 % 0.00 in
10:00 55.2 °F 54.0 °F 30.03 in North 2.0 mph 4.0 mph 94 % 0.00 in
10:15 55.4 °F 54.0 °F 30.04 in Calm   3.0 mph 94 % 0.00 in
10:30 55.7 °F 54.0 °F 30.05 in Calm   4.0 mph 93 % 0.00 in
10:45 56.0 °F 54.0 °F 30.06 in Calm   3.0 mph 92 % 0.00 in
11:00 56.3 °F 54.0 °F 30.06 in North 1.0 mph 4.0 mph 92 % 0.00 in
11:15 56.4 °F 54.0 °F 30.06 in Calm   3.0 mph 91 % 0.00 in
11:30 56.5 °F 54.0 °F 30.06 in NNE 1.0 mph 8.0 mph 91 % 0.00 in
11:45 56.5 °F 54.0 °F 30.06 in Calm   6.0 mph 91 % 0.00 in
12:00 56.6 °F 54.0 °F 30.04 in East 2.0 mph 10.0 mph 91 % 0.00 in
12:15 56.7 °F 54.0 °F 30.03 in ENE 1.0 mph 13.0 mph 90 % 0.00 in
12:30 56.9 °F 54.0 °F 30.03 in ESE 1.0 mph 12.0 mph 90 % 0.00 in
12:45 56.9 °F 54.0 °F 30.03 in NE 1.0 mph 9.0 mph 89 % 0.00 in
13:00 57.0 °F 54.0 °F 30.01 in NNE 2.0 mph 10.0 mph 89 % 0.00 in
13:15 57.3 °F 54.0 °F 30.00 in NE 4.0 mph 6.0 mph 89 % 0.00 in
13:30 57.6 °F 54.0 °F 30.00 in ENE 3.0 mph 8.0 mph 88 % 0.00 in
13:45 58.1 °F 54.0 °F 29.99 in Calm   6.0 mph 87 % 0.00 in
14:00 58.5 °F 55.0 °F 30.00 in Calm   8.0 mph 87 % 0.00 in
14:15 58.9 °F 55.0 °F 30.00 in ENE 1.0 mph 5.0 mph 86 % 0.00 in
14:30 59.2 °F 55.0 °F 30.00 in Calm   3.0 mph 86 % 0.00 in
14:46 59.6 °F 56.0 °F 30.01 in Calm   2.0 mph 86 % 0.00 in
15:00 59.7 °F 55.0 °F 30.01 in NE 1.0 mph 4.0 mph 85 % 0.00 in
15:16 59.1 °F 55.0 °F 30.02 in Calm   4.0 mph 85 % 0.00 in
15:31 58.6 °F 55.0 °F 30.02 in Calm   2.0 mph 86 % 0.00 in
15:46 58.3 °F 55.0 °F 30.01 in Calm   4.0 mph 87 % 0.00 in
16:01 58.1 °F 55.0 °F 30.01 in NNE 1.0 mph 8.0 mph 88 % 0.00 in
16:16 57.6 °F 54.0 °F 30.01 in East 4.0 mph 8.0 mph 89 % 0.00 in
16:31 57.1 °F 55.0 °F 30.02 in ENE 1.0 mph 6.0 mph 91 % 0.00 in
16:46 56.9 °F 54.0 °F 30.02 in Calm   5.0 mph 91 % 0.00 in
17:01 56.9 °F 55.0 °F 30.02 in Calm   7.0 mph 92 % 0.00 in
17:16 56.9 °F 55.0 °F 30.01 in NNE 2.0 mph 6.0 mph 92 % 0.00 in
17:31 57.1 °F 55.0 °F 30.01 in Calm   8.0 mph 92 % 0.00 in
17:46 57.2 °F 55.0 °F 30.00 in East 2.0 mph 5.0 mph 92 % 0.00 in
18:01 57.3 °F 55.0 °F 30.00 in Calm   4.0 mph 92 % 0.00 in
18:16 57.4 °F 55.0 °F 30.00 in Calm   4.0 mph 92 % 0.00 in
18:31 57.4 °F 55.0 °F 30.01 in Calm   4.0 mph 92 % 0.00 in
18:46 57.4 °F 55.0 °F 30.01 in Calm   6.0 mph 92 % 0.00 in
19:01 57.4 °F 55.0 °F 30.01 in Calm   6.0 mph 92 % 0.00 in
19:16 57.4 °F 55.0 °F 30.02 in ENE 3.0 mph 5.0 mph 92 % 0.00 in
19:31 57.4 °F 55.0 °F 30.03 in Calm   2.0 mph 92 % 0.00 in
19:46 57.4 °F 55.0 °F 30.03 in Calm   3.0 mph 92 % 0.00 in
20:01 57.4 °F 55.0 °F 30.03 in Calm   2.0 mph 92 % 0.00 in
20:16 57.4 °F 55.0 °F 30.03 in Calm   3.0 mph 92 % 0.00 in
20:31 57.5 °F 55.0 °F 30.03 in Calm   1.0 mph 92 % 0.00 in
20:46 57.5 °F 55.0 °F 30.03 in Calm   4.0 mph 92 % 0.00 in
21:01 57.6 °F 55.0 °F 30.03 in Calm   3.0 mph 92 % 0.00 in
21:16 57.5 °F 55.0 °F 30.03 in Calm   3.0 mph 92 % 0.00 in
21:31 57.6 °F 56.0 °F 30.03 in NNE 1.0 mph 5.0 mph 93 % 0.00 in
21:46 57.6 °F 56.0 °F 30.03 in Calm   2.0 mph 93 % 0.00 in
22:01 57.6 °F 56.0 °F 30.03 in Calm   3.0 mph 93 % 0.00 in
22:18 57.6 °F 56.0 °F 30.03 in Calm   2.0 mph 93 % 0.00 in
22:31 57.6 °F 56.0 °F 30.03 in Calm   3.0 mph 93 % 0.00 in
22:46 57.6 °F 56.0 °F 30.03 in Calm   3.0 mph 93 % 0.00 in
23:01 57.6 °F 56.0 °F 30.02 in Calm   3.0 mph 93 % 0.00 in
23:17 57.4 °F 55.0 °F 30.02 in Calm   2.0 mph 93 % 0.00 in
23:31 57.2 °F 56.0 °F 30.01 in Calm   2.0 mph 94 % 0.00 in
23:46 57.0 °F 55.0 °F 30.00 in NE 1.0 mph 4.0 mph 93 % 0.00 in
Des Moines Weather and Climate
Compliments of Weather Underground - 3 mb

Script developed by  Jim McMurry - jmcmurry@mwt.net Adapted for the template by  Wim van der Kuil - Leuven-Template.eu

You find our weather info also at:

Weather Underground

Equipment we use:

Weather-station
Davis VP2 Plus

Weather-program
Davis Weatherlink.Com

Weather-server
iMac (Retina 4K, 21.5-inch, Late 2015)

Provider
Hostmonster.com

Davis VP2 Plus

Davis Weatherlink.Com

iMac (Retina 4K, 21.5-inch, Late 2015)

Hostmonster.com